Airfield :
LOGIN :

Register | Disclaimer

   EN    FR    IT 

 










Legend :    VFR   Marginal VFR   IFR   Intensive IFR   Very Intensive IFR
Visi :
Ceiling :
>= 8 km
>= 3000ft
5 to 8 km
1000 to 3000 ft
1500m to 5 km
500 to 1000 ft
800 to 1500m
200 to 500 ft
< 800m
< 200 ft
Symbols :   Thunderstorms  Fog  Heavy snow  Heavy precipitations  Wind > 20 kt
SIGMETs :     Misc.  Thunderstorms  Icing  Turbulence  Mountain Waves  Volcanic Ashes






- Airport Elevation : 1079 ft


ETIK - Illesheim Air Base

CURRENT METAR :
  • 271956Z AUTO 09003KT 9000 BR OVC003 00/00 A3016 RMK AO2 SLP234 T00010001 $

EXPIRED METARs :
  • 271856Z AUTO 00000KT 9999 OVC003 00/00 A3015 RMK AO2 SLP230 T00000000 $
  • 271826Z AUTO 00000KT 9999 OVC003 00/00 A3014 RMK AO2 CIG 003V005 SLP227 $
  • 271811Z AUTO 00000KT 9999 BKN005 00/00 A3015 RMK AO2 SLP230 $
  • 271756Z AUTO 00000KT 9999 SCT006 00/00 A3015 RMK AO2 SLP230 T10041004 10050 21015 52004 $
  • 271747Z AUTO 00000KT 9999 FEW007 00/00 A3015 RMK AO2 SLP230 $

Expired Forecast.



MET'MAP, your aeronautical weather chart ! - Copyright ORBIFLY December 2007 - Disclaimer

ORBIFLY MET'MAP TEAM :

Programming & Development : Alexandra Zaïnal
Concept & original design : Baudouin d'Aumeries
Assistance for programming : Marc-Olivier Méhu
Technical & hardware support : Manuel Goepfert

Contact : metmap@orbifly.com




SOURCES & CREDITS :

   NOAA